Time;durP1;ratioP1;P1;durP2;ratioP2;P2;SDS_P1;SDS_P2;PMS_P1;PMS_P2;Temp;Humidity;BMP_temperature;BMP_pressure;BME280_temperature;BME280_humidity;BME280_pressure;Samples;Min_cycle;Max_cycle;Signal;HPM_P1;HPM_P2
2022/12/07 05:22:38;;;;;;;8.85;5.22;;;;;;;2.92;100.00;100366.59;5089020;28;20854;-67
2022/12/07 05:25:03;;;;;;;9.85;4.15;;;;;;;2.98;100.00;100360.00;5089130;28;20032;-67
2022/12/07 05:27:29;;;;;;;10.68;5.97;;;;;;;3.02;100.00;100361.44;5088971;28;20042;-67
2022/12/07 05:29:54;;;;;;;9.20;5.40;;;;;;;2.97;100.00;100353.06;5088818;28;20040;-67
2022/12/07 05:32:19;;;;;;;9.50;4.47;;;;;;;3.06;100.00;100362.03;5087905;28;20043;-67
2022/12/07 05:34:45;;;;;;;9.63;4.80;;;;;;;3.09;100.00;100361.78;5088818;28;20040;-67
2022/12/07 05:37:11;;;;;;;11.13;5.25;;;;;;;3.12;100.00;100366.81;5088760;28;20028;-67
2022/12/07 05:39:40;;;;;;;10.43;5.50;;;;;;;3.14;100.00;100373.63;5088831;28;20493;-67
2022/12/07 05:42:11;;;;;;;10.82;6.03;;;;;;;3.15;100.00;100369.22;5088547;28;20538;-67
2022/12/07 05:44:37;;;;;;;9.48;4.97;;;;;;;3.15;100.00;100369.22;5088694;28;20044;-67
2022/12/07 05:47:03;;;;;;;8.13;4.47;;;;;;;3.15;100.00;100364.78;5088654;28;20396;-66
2022/12/07 05:49:28;;;;;;;11.50;4.50;;;;;;;3.16;100.00;100365.63;5088708;28;20064;-67
2022/12/07 05:51:54;;;;;;;14.93;5.85;;;;;;;3.10;100.00;100356.41;5088052;28;20040;-67
2022/12/07 05:54:19;;;;;;;11.23;5.25;;;;;;;3.07;100.00;100348.78;5088536;28;20074;-67
2022/12/07 05:56:45;;;;;;;10.25;5.75;;;;;;;3.09;100.00;100357.38;5088378;28;20089;-67
2022/12/07 05:59:22;;;;;;;16.85;6.00;;;;;;;3.18;100.00;100356.63;5088419;28;20396;-67
2022/12/07 06:01:52;;;;;;;10.73;5.78;;;;;;;3.18;100.00;100358.41;5088117;28;20040;-67
2022/12/07 06:04:18;;;;;;;9.68;5.57;;;;;;;3.19;100.00;100358.28;5088485;28;20050;-67
2022/12/07 06:06:44;;;;;;;10.90;5.43;;;;;;;3.14;100.00;100357.00;5088218;28;20031;-67
2022/12/07 06:09:09;;;;;;;6.93;4.32;;;;;;;3.17;100.00;100354.94;5088196;28;20135;-67
2022/12/07 06:14:19;;;;;;;11.15;5.97;;;;;;;3.17;100.00;100364.66;5088162;28;20044;-67
2022/12/07 06:16:44;;;;;;;9.60;4.75;;;;;;;3.20;100.00;100367.06;5087923;28;20089;-67
2022/12/07 06:19:10;;;;;;;8.27;4.55;;;;;;;3.18;100.00;100363.69;5088192;28;20139;-67
2022/12/07 06:21:35;;;;;;;11.07;5.57;;;;;;;3.21;100.00;100366.09;5087746;28;20028;-67
2022/12/07 06:24:01;;;;;;;11.80;4.40;;;;;;;3.18;100.00;100369.78;5087880;28;20040;-67
2022/12/07 06:26:27;;;;;;;10.23;5.00;;;;;;;3.21;100.00;100372.19;5087880;28;20123;-67
2022/12/07 06:28:53;;;;;;;7.35;3.80;;;;;;;3.21;100.00;100366.09;5087882;28;20388;-67
2022/12/07 06:31:18;;;;;;;8.48;4.80;;;;;;;3.20;100.00;100369.69;5087466;28;20044;-67
2022/12/07 06:33:43;;;;;;;9.73;4.43;;;;;;;3.19;100.00;100368.81;5075762;28;20052;-67
2022/12/07 06:36:10;;;;;;;14.38;6.05;;;;;;;3.19;100.00;100365.34;5074170;28;20127;-67
2022/12/07 06:38:35;;;;;;;9.30;4.93;;;;;;;3.20;100.00;100374.94;5074003;28;20044;-67
2022/12/07 06:41:01;;;;;;;9.85;4.60;;;;;;;3.17;100.00;100364.66;5073815;28;20511;-67
2022/12/07 06:43:27;;;;;;;11.02;5.03;;;;;;;3.19;100.00;100373.25;5074095;28;20047;-67
2022/12/07 06:45:52;;;;;;;9.07;3.80;;;;;;;3.23;100.00;100372.06;5073773;28;20059;-67
2022/12/07 06:48:18;;;;;;;13.80;5.65;;;;;;;3.24;100.00;100376.34;5072775;28;20081;-67
2022/12/07 06:50:47;;;;;;;5.78;4.30;;;;;;;3.20;100.00;100373.16;5073493;28;20478;-67
2022/12/07 06:53:13;;;;;;;8.98;4.38;;;;;;;3.18;100.00;100375.03;5073880;28;20043;-67
2022/12/07 06:55:39;;;;;;;9.35;4.55;;;;;;;3.16;100.00;100365.63;5073772;28;20123;-68
2022/12/07 06:58:04;;;;;;;11.48;4.88;;;;;;;3.19;100.00;100366.19;5073799;28;20087;-67
2022/12/07 07:00:30;;;;;;;9.50;4.80;;;;;;;3.19;100.00;100362.72;5073619;28;20576;-67
2022/12/07 07:02:55;;;;;;;8.18;4.03;;;;;;;3.18;100.00;100371.59;5073788;28;20127;-67
2022/12/07 07:05:21;;;;;;;9.48;4.13;;;;;;;3.20;100.00;100374.94;5073471;28;20082;-66
2022/12/07 07:07:50;;;;;;;11.70;4.38;;;;;;;3.23;100.00;100374.69;5073636;28;20036;-67
2022/12/07 07:10:16;;;;;;;8.30;4.45;;;;;;;3.21;100.00;100366.91;5073240;28;20075;-67
2022/12/07 07:12:41;;;;;;;11.55;4.43;;;;;;;3.17;100.00;100359.38;5073504;28;20068;-67
2022/12/07 07:15:07;;;;;;;7.10;3.90;;;;;;;3.25;100.00;100372.75;5073464;28;20443;-67
2022/12/07 07:17:32;;;;;;;13.80;4.93;;;;;;;3.20;100.00;100375.78;5073512;28;20115;-67
2022/12/07 07:19:58;;;;;;;8.60;4.38;;;;;;;3.25;100.00;100367.50;5073282;28;20127;-67
2022/12/07 07:22:23;;;;;;;6.45;3.90;;;;;;;3.25;100.00;100376.22;5073082;28;20036;-67
2022/12/07 07:24:48;;;;;;;6.80;4.38;;;;;;;3.28;100.00;100379.59;5073212;28;20116;-67
2022/12/07 07:27:14;;;;;;;9.05;4.28;;;;;;;3.28;100.00;100376.97;5073259;28;20047;-67
2022/12/07 07:29:39;;;;;;;8.65;4.88;;;;;;;3.31;100.00;100374.91;5073124;28;20134;-67
2022/12/07 07:32:05;;;;;;;8.18;3.65;;;;;;;3.26;100.00;100375.28;5072859;28;20059;-67
2022/12/07 07:34:30;;;;;;;9.25;5.03;;;;;;;3.28;100.00;100385.69;5072985;28;20039;-67
2022/12/07 07:36:55;;;;;;;9.63;3.40;;;;;;;3.32;100.00;100381.00;5072907;28;20452;-67
2022/12/07 07:39:21;;;;;;;8.70;4.10;;;;;;;3.41;100.00;100378.47;5073118;28;20087;-67
2022/12/07 07:41:46;;;;;;;8.32;4.57;;;;;;;3.42;100.00;100381.94;5072868;28;20401;-67
2022/12/07 07:44:18;;;;;;;10.80;4.88;;;;;;;3.44;100.00;100382.66;5072033;28;20049;-65
2022/12/07 07:46:43;;;;;;;9.05;4.22;;;;;;;3.44;100.00;100393.19;5071591;28;20032;-66
2022/12/07 07:49:10;;;;;;;9.48;4.70;;;;;;;3.43;100.00;100394.97;5072773;28;20096;-66
2022/12/07 07:51:36;;;;;;;9.82;4.18;;;;;;;3.37;100.00;100395.47;5072360;28;20089;-66
2022/12/07 07:54:02;;;;;;;10.13;4.32;;;;;;;3.43;100.00;100394.16;5072743;28;20048;-66
2022/12/07 07:56:30;;;;;;;7.70;3.92;;;;;;;3.38;100.00;100393.69;5072675;28;20039;-66
2022/12/07 07:58:56;;;;;;;9.30;3.83;;;;;;;3.38;100.00;100391.88;5072680;28;20044;-66
2022/12/07 08:01:21;;;;;;;7.85;4.50;;;;;;;3.41;100.00;100391.66;5072286;28;20025;-66
2022/12/07 08:03:48;;;;;;;10.70;4.32;;;;;;;3.39;100.00;100384.81;5072399;28;20067;-66
2022/12/07 08:06:13;;;;;;;7.22;4.00;;;;;;;3.39;100.00;100390.94;5071110;28;20096;-66
2022/12/07 08:08:39;;;;;;;8.20;4.32;;;;;;;3.36;100.00;100393.81;5072519;28;20079;-65
2022/12/07 08:11:09;;;;;;;8.05;4.40;;;;;;;3.40;100.00;100394.41;5072055;28;20037;-66
2022/12/07 08:13:35;;;;;;;8.23;4.03;;;;;;;3.47;100.00;100398.22;5072359;28;20397;-66
2022/12/07 08:16:06;;;;;;;7.00;3.97;;;;;;;3.45;100.00;100400.13;5072208;28;20127;-66
2022/12/07 08:18:35;;;;;;;8.10;4.20;;;;;;;3.45;100.00;100408.84;5072120;28;20163;-65
2022/12/07 08:21:01;;;;;;;7.25;3.90;;;;;;;3.47;100.00;100414.03;5071743;28;20477;-65
2022/12/07 08:23:27;;;;;;;8.65;4.45;;;;;;;3.43;100.00;100404.69;5072128;28;20052;-67
2022/12/07 08:25:52;;;;;;;6.70;3.78;;;;;;;3.48;100.00;100413.91;5072295;28;20033;-67
2022/12/07 08:28:18;;;;;;;7.07;3.83;;;;;;;3.49;100.00;100415.56;5072178;28;20097;-66
2022/12/07 08:30:43;;;;;;;6.47;3.83;;;;;;;3.48;100.00;100410.41;5071740;28;20080;-65
2022/12/07 08:33:10;;;;;;;10.10;4.63;;;;;;;3.50;100.00;100417.22;5071931;28;20050;-67
2022/12/07 08:35:35;;;;;;;8.40;4.20;;;;;;;3.51;100.00;100413.63;5071870;28;20523;-65
2022/12/07 08:38:02;;;;;;;10.07;4.40;;;;;;;3.55;100.00;100419.50;5071986;28;20040;-67
2022/12/07 08:40:28;;;;;;;6.38;3.60;;;;;;;3.53;100.00;100414.38;5070307;28;20043;-65
2022/12/07 08:42:53;;;;;;;6.28;3.85;;;;;;;3.56;100.00;100417.69;5071937;28;20124;-64
2022/12/07 08:45:20;;;;;;;7.03;4.10;;;;;;;3.57;100.00;100412.31;5071741;28;20456;-67
2022/12/07 08:48:01;;;;;;;7.82;4.10;;;;;;;3.57;100.00;100424.63;5071677;28;20039;-66
2022/12/07 08:50:27;;;;;;;7.07;4.40;;;;;;;3.61;100.00;100421.66;5071435;28;20041;-64
2022/12/07 08:52:55;;;;;;;9.57;4.25;;;;;;;3.61;100.00;100423.44;5071896;28;20046;-67
2022/12/07 08:55:20;;;;;;;5.30;3.25;;;;;;;3.66;100.00;100427.38;5071387;28;20083;-67
2022/12/07 08:57:46;;;;;;;6.65;3.72;;;;;;;3.67;100.00;100428.22;5071749;28;20501;-64
2022/12/07 09:00:13;;;;;;;10.32;3.95;;;;;;;3.68;100.00;100422.81;5071287;28;20481;-61
2022/12/07 09:02:39;;;;;;;14.05;4.13;;;;;;;3.71;100.00;100417.28;5071626;28;20478;-64
2022/12/07 09:05:05;;;;;;;7.85;4.30;;;;;;;3.73;100.00;100425.91;5071686;28;20044;-67
2022/12/07 09:07:33;;;;;;;6.32;3.53;;;;;;;3.77;100.00;100418.59;5071552;28;20071;-66
2022/12/07 09:09:59;;;;;;;8.05;3.75;;;;;;;3.80;100.00;100419.19;5071408;28;20048;-67
2022/12/07 09:12:25;;;;;;;6.68;3.53;;;;;;;3.80;100.00;100415.72;5071579;28;20094;-66
2022/12/07 09:14:50;;;;;;;8.15;3.75;;;;;;;3.85;100.00;100417.94;5071316;28;20438;-66
2022/12/07 09:17:15;;;;;;;6.88;3.78;;;;;;;3.86;100.00;100419.66;5070067;28;20055;-67
2022/12/07 09:19:42;;;;;;;9.52;4.72;;;;;;;3.87;100.00;100424.78;5071361;28;20040;-67
2022/12/07 09:22:08;;;;;;;6.85;4.45;;;;;;;3.91;100.00;100425.34;5069925;28;20127;-67
2022/12/07 09:24:33;;;;;;;6.32;3.25;;;;;;;3.89;100.00;100422.03;5071571;28;20112;-66
2022/12/07 09:26:58;;;;;;;5.75;3.95;;;;;;;3.92;100.00;100422.63;5071201;28;20179;-65
2022/12/07 09:29:24;;;;;;;3.70;2.83;;;;;;;4.00;100.00;100427.25;5071786;28;20028;-66
2022/12/07 09:31:51;;;;;;;6.57;4.07;;;;;;;3.97;100.00;100416.94;5071015;28;20570;-66
2022/12/07 09:34:16;;;;;;;8.10;4.28;;;;;;;4.01;100.00;100428.91;5071389;28;20040;-66
2022/12/07 09:36:42;;;;;;;10.27;4.18;;;;;;;4.02;100.00;100423.50;5071287;28;20493;-66
2022/12/07 09:39:08;;;;;;;7.55;3.30;;;;;;;4.06;100.00;100419.66;5071315;28;20055;-66
2022/12/07 09:41:38;;;;;;;6.53;3.63;;;;;;;4.07;100.00;100423.97;5070926;28;20025;-67
2022/12/07 09:44:12;;;;;;;5.88;3.33;;;;;;;4.06;99.96;100424.94;5071211;28;20055;-66
2022/12/07 09:46:41;;;;;;;7.47;3.65;;;;;;;4.06;99.34;100421.47;5071195;28;20036;-67
2022/12/07 09:49:19;;;;;;;6.45;3.65;;;;;;;4.06;99.24;100424.94;5071144;28;20032;-66
2022/12/07 09:51:45;;;;;;;9.93;4.05;;;;;;;4.11;100.00;100426.34;5070730;28;20039;-66
2022/12/07 09:54:16;;;;;;;6.45;3.47;;;;;;;4.18;100.00;100423.09;5071020;28;20036;-66
2022/12/07 09:56:43;;;;;;;7.20;3.22;;;;;;;4.14;99.76;100421.66;5070894;28;20025;-66
2022/12/07 09:59:16;;;;;;;6.65;3.63;;;;;;;4.21;99.45;100411.44;5070976;28;20045;-65
2022/12/07 10:01:42;;;;;;;10.15;3.65;;;;;;;4.18;97.09;100415.19;5070743;28;20067;-66
2022/12/07 10:04:15;;;;;;;8.45;3.85;;;;;;;4.14;96.45;100411.13;5070986;28;20086;-67
2022/12/07 10:06:41;;;;;;;7.43;3.50;;;;;;;4.18;97.19;100403.81;5070826;28;20139;-67
2022/12/07 10:09:11;;;;;;;7.05;3.40;;;;;;;4.22;97.30;100407.84;5074019;28;20040;-66
2022/12/07 10:12:01;;;;;;;6.80;3.72;;;;;;;4.24;96.45;100401.50;5074319;28;20036;-65
2022/12/07 10:14:29;;;;;;;7.47;3.17;;;;;;;4.23;97.36;100396.31;5074718;28;20119;-66
2022/12/07 10:16:55;;;;;;;7.25;3.83;;;;;;;4.25;96.39;100399.69;5074568;28;20048;-66
2022/12/07 10:19:27;;;;;;;9.90;3.67;;;;;;;4.24;96.05;100387.47;5074457;28;20036;-66
2022/12/07 10:22:19;;;;;;;8.25;4.03;;;;;;;4.27;95.74;100392.47;5074080;28;20044;-67
2022/12/07 10:24:47;;;;;;;5.65;3.10;;;;;;;4.29;96.15;100391.38;5072641;28;20059;-66
2022/12/07 10:27:21;;;;;;;8.23;3.65;;;;;;;4.26;96.67;100383.72;5074332;28;20036;-66
2022/12/07 10:29:52;;;;;;;6.72;3.25;;;;;;;4.29;96.57;100391.38;5074218;28;20502;-66
2022/12/07 10:32:17;;;;;;;5.70;3.13;;;;;;;4.34;95.53;100389.19;5074197;28;20505;-66
2022/12/07 10:34:43;;;;;;;7.00;3.83;;;;;;;4.28;96.20;100383.59;5074384;28;20063;-66
2022/12/07 10:37:08;;;;;;;8.73;3.50;;;;;;;4.31;96.94;100393.91;5074121;28;20032;-67
2022/12/07 10:39:48;;;;;;;5.22;3.20;;;;;;;4.34;95.83;100388.34;5074278;28;20028;-66
2022/12/07 10:42:16;;;;;;;6.38;3.55;;;;;;;4.38;95.66;100392.41;5074043;28;20514;-66
2022/12/07 10:44:43;;;;;;;8.30;3.67;;;;;;;4.39;96.52;100377.41;5072892;28;20036;-66
2022/12/07 10:47:44;;;;;;;8.35;3.88;;;;;;;4.41;95.56;100371.03;5073949;28;20043;-66
2022/12/07 10:50:28;;;;;;;8.65;4.15;;;;;;;4.38;95.05;100379.22;5074062;28;20110;-67
2022/12/07 10:53:00;;;;;;;11.43;4.20;;;;;;;4.36;95.96;100378.50;5073934;28;20132;-65
2022/12/07 10:55:52;;;;;;;8.90;3.90;;;;;;;4.38;95.40;100370.47;5073815;28;20047;-66
2022/12/07 10:58:36;;;;;;;6.90;3.17;;;;;;;4.38;94.86;100373.13;5074026;28;20528;-66
2022/12/07 11:01:39;;;;;;;7.25;3.63;;;;;;;4.38;95.86;100373.13;5073590;28;20509;-66
2022/12/07 11:04:07;;;;;;;6.20;3.42;;;;;;;4.36;96.71;100366.13;5073825;28;20028;-66
2022/12/07 11:06:45;;;;;;;10.90;3.90;;;;;;;4.31;96.43;100368.34;5073675;28;20111;-64
2022/12/07 11:09:59;;;;;;;7.78;3.75;;;;;;;4.32;96.28;100350.72;5073739;28;20061;-67
2022/12/07 11:12:39;;;;;;;9.32;4.03;;;;;;;4.33;96.58;100355.88;5069672;28;20045;-65
2022/12/07 11:15:59;;;;;;;9.55;4.38;;;;;;;4.36;97.66;100352.94;5073702;28;20105;-65
2022/12/07 11:18:33;;;;;;;5.65;2.78;;;;;;;4.42;99.11;100338.41;5029514;28;20386;-66
2022/12/07 11:21:09;;;;;;;7.43;2.83;;;;;;;4.41;98.20;100335.91;5073205;28;20032;-66
2022/12/07 11:23:43;;;;;;;7.95;3.92;;;;;;;4.49;99.20;100328.16;5074761;28;20505;-65
2022/12/07 11:26:23;;;;;;;8.65;3.78;;;;;;;4.50;97.95;100330.69;5074581;28;20066;-65
2022/12/07 11:29:07;;;;;;;9.25;4.20;;;;;;;4.53;99.42;100326.94;5073791;28;20039;-66
2022/12/07 11:32:06;;;;;;;7.00;3.78;;;;;;;4.62;98.81;100326.97;5085314;22;20045;-64
2022/12/07 11:34:44;;;;;;;9.93;3.75;;;;;;;4.63;97.07;100326.03;5035602;28;20041;-64
2022/12/07 11:37:18;;;;;;;8.45;3.97;;;;;;;4.71;98.34;100325.38;5053295;28;20115;-64
2022/12/07 11:39:54;;;;;;;10.10;4.35;;;;;;;4.86;98.39;100331.94;5053303;28;20044;-64
2022/12/07 11:42:25;;;;;;;8.57;4.15;;;;;;;4.90;97.51;100328.06;5052861;28;20035;-64
2022/12/07 11:45:09;;;;;;;13.60;4.78;;;;;;;4.96;95.71;100325.84;5053071;28;20032;-64
2022/12/07 11:47:48;;;;;;;8.98;4.88;;;;;;;5.01;95.37;100320.97;5053156;28;20033;-64
2022/12/07 11:50:53;;;;;;;11.77;5.13;;;;;;;5.05;95.19;100312.66;5052699;28;20028;-64
2022/12/07 11:53:49;;;;;;;10.07;4.68;;;;;;;5.18;97.19;100315.88;5040019;28;20041;-64
2022/12/07 11:56:21;;;;;;;8.82;4.40;;;;;;;5.06;95.90;100319.59;5052899;28;20124;-63
2022/12/07 11:58:55;;;;;;;14.38;5.38;;;;;;;4.95;96.75;100314.44;5053210;28;20037;-64
2022/12/07 12:01:47;;;;;;;9.30;4.85;;;;;;;4.88;97.15;100303.59;5052361;28;20037;-64
2022/12/07 12:04:28;;;;;;;8.10;4.47;;;;;;;4.92;97.76;100304.16;5052743;28;20037;-63
2022/12/07 12:06:54;;;;;;;11.10;4.47;;;;;;;4.86;96.98;100297.63;5052775;28;20497;-64
2022/12/07 12:09:28;;;;;;;10.88;5.07;;;;;;;4.91;98.46;100302.50;5052415;28;20041;-64
2022/12/07 12:11:59;;;;;;;6.90;4.28;;;;;;;4.89;100.00;100300.00;5052050;28;20047;-64
2022/12/07 12:14:37;;;;;;;9.38;4.35;;;;;;;4.87;99.29;100303.72;5034614;28;20060;-64
2022/12/07 12:17:32;;;;;;;17.38;6.53;;;;;;;4.85;98.62;100303.03;5034642;28;20494;-64
2022/12/07 12:20:21;;;;;;;10.73;5.15;;;;;;;4.78;98.64;100301.91;5052349;28;20025;-63
2022/12/07 12:23:05;;;;;;;12.55;4.47;;;;;;;4.82;99.20;100300.66;5034516;28;20048;-62
2022/12/07 12:25:45;;;;;;;13.02;5.63;;;;;;;4.80;99.72;100290.22;5034246;28;20458;-63
2022/12/07 12:28:35;;;;;;;11.20;6.18;;;;;;;4.83;100.00;100286.50;5052343;28;20124;-63
2022/12/07 12:31:10;;;;;;;13.10;5.90;;;;;;;4.87;100.00;100283.44;5033286;28;20036;-64
2022/12/07 12:33:37;;;;;;;12.85;5.20;;;;;;;4.85;99.78;100290.66;5052171;28;20130;-64
2022/12/07 12:36:17;;;;;;;11.38;5.72;;;;;;;4.84;99.54;100286.38;5051996;28;20037;-65
2022/12/07 12:38:50;;;;;;;11.05;4.75;;;;;;;4.85;99.93;100281.91;5052043;28;20044;-63
2022/12/07 12:41:34;;;;;;;10.82;6.05;;;;;;;4.86;100.00;100279.13;5033506;28;20029;-63
2022/12/07 12:44:00;;;;;;;14.73;5.85;;;;;;;4.91;100.00;100284.03;5051921;28;20095;-64
2022/12/07 12:46:28;;;;;;;9.52;5.32;;;;;;;4.90;100.00;100279.72;5051966;28;20060;-65
2022/12/07 12:49:30;;;;;;;12.30;5.45;;;;;;;4.88;100.00;100286.91;5051843;28;20036;-65
2022/12/07 12:51:57;;;;;;;13.70;5.28;;;;;;;4.85;100.00;100282.75;5051447;28;20440;-65
2022/12/07 12:54:33;;;;;;;17.02;6.35;;;;;;;4.86;100.00;100280.94;5051678;28;20410;-65
2022/12/07 12:57:10;;;;;;;12.65;5.40;;;;;;;4.81;100.00;100269.94;5051669;28;20051;-64
2022/12/07 12:59:39;;;;;;;17.65;6.65;;;;;;;4.89;100.00;100278.06;5051768;28;20035;-64
2022/12/07 13:02:16;;;;;;;8.60;4.35;;;;;;;4.86;100.00;100279.13;5051220;28;20025;-63
2022/12/07 13:05:07;;;;;;;9.65;5.00;;;;;;;4.84;100.00;100270.53;5051583;28;20100;-64
2022/12/07 13:07:49;;;;;;;13.57;6.22;;;;;;;4.83;100.00;100262.75;5051510;28;20179;-63
2022/12/07 13:10:21;;;;;;;16.15;5.93;;;;;;;4.82;100.00;100261.88;5051057;28;20159;-63
2022/12/07 13:13:28;;;;;;;10.75;6.18;;;;;;;4.80;100.00;100260.38;5051665;28;20109;-65
2022/12/07 13:16:15;;;;;;;12.63;5.55;;;;;;;4.70;100.00;100260.34;5051627;28;20040;-63
2022/12/07 13:18:41;;;;;;;11.60;4.47;;;;;;;4.74;100.00;100255.63;5033444;28;20094;-64
2022/12/07 13:21:06;;;;;;;11.35;5.53;;;;;;;4.69;100.00;100247.28;5016596;28;20040;-63
2022/12/07 13:23:45;;;;;;;13.45;5.57;;;;;;;4.61;100.00;100248.78;5051268;28;20049;-63
2022/12/07 13:26:23;;;;;;;16.00;6.50;;;;;;;4.60;100.00;100247.13;5051337;28;20040;-63
2022/12/07 13:29:13;;;;;;;14.30;6.30;;;;;;;4.59;100.00;100256.00;5051453;28;20475;-64
2022/12/07 13:31:44;;;;;;;12.77;6.00;;;;;;;4.62;100.00;100245.19;5036497;28;20121;-62
2022/12/07 13:34:33;;;;;;;10.68;5.07;;;;;;;4.67;100.00;100246.59;5051412;28;20536;-63
2022/12/07 13:37:10;;;;;;;14.65;5.15;;;;;;;4.61;100.00;100248.78;5051328;28;20045;-64
2022/12/07 13:39:45;;;;;;;11.48;4.93;;;;;;;4.65;100.00;100243.25;5051183;28;20477;-64
2022/12/07 13:42:22;;;;;;;11.70;5.25;;;;;;;4.61;100.00;100237.41;5051056;28;20081;-62
2022/12/07 13:44:47;;;;;;;14.70;5.70;;;;;;;4.59;100.00;100234.91;5055279;28;20452;-63
2022/12/07 13:47:20;;;;;;;13.00;5.93;;;;;;;4.57;100.00;100236.84;5055218;28;20044;-66
2022/12/07 13:49:52;;;;;;;11.98;5.38;;;;;;;4.55;100.00;100230.03;5037366;28;20517;-66
2022/12/07 13:52:21;;;;;;;11.35;4.80;;;;;;;4.50;100.00;100235.72;5036767;28;20029;-64
2022/12/07 13:54:49;;;;;;;14.18;5.03;;;;;;;4.47;100.00;100228.06;5055029;28;20473;-65
2022/12/07 13:57:16;;;;;;;12.77;5.32;;;;;;;4.49;100.00;100238.47;5037110;28;20086;-64
2022/12/07 13:59:42;;;;;;;11.30;4.85;;;;;;;4.45;100.00;100230.00;5037202;28;20020;-63
2022/12/07 14:02:28;;;;;;;10.38;5.95;;;;;;;4.45;100.00;100237.09;5054629;28;20102;-64
2022/12/07 14:05:22;;;;;;;10.73;5.22;;;;;;;4.46;100.00;100228.22;5054956;28;20036;-63
2022/12/07 14:08:00;;;;;;;12.88;5.18;;;;;;;4.44;100.00;100225.72;5054838;28;20086;-64
2022/12/07 14:10:34;;;;;;;9.70;5.10;;;;;;;4.38;100.00;100226.25;5054370;28;20111;-63
2022/12/07 14:13:01;;;;;;;8.55;5.30;;;;;;;4.38;100.00;100228.06;5054827;28;20043;-64
2022/12/07 14:15:30;;;;;;;11.45;5.22;;;;;;;4.36;100.00;100222.88;5054620;28;20024;-63
2022/12/07 14:17:58;;;;;;;18.45;5.40;;;;;;;4.36;100.00;100226.34;5054733;28;20067;-64
2022/12/07 14:20:41;;;;;;;10.88;5.03;;;;;;;4.37;100.00;100227.22;5054275;28;20041;-64
2022/12/07 14:23:23;;;;;;;13.25;5.32;;;;;;;4.39;100.00;100217.38;5054595;28;20489;-64
2022/12/07 14:25:52;;;;;;;10.38;5.00;;;;;;;4.41;100.00;100225.97;5054413;28;20115;-65
2022/12/07 14:28:31;;;;;;;11.48;4.85;;;;;;;4.49;100.00;100233.19;5054487;28;20037;-65
2022/12/07 14:30:57;;;;;;;16.10;6.13;;;;;;;4.42;100.00;100232.91;5053927;28;20060;-65
2022/12/07 14:33:24;;;;;;;13.13;4.93;;;;;;;4.43;100.00;100225.81;5054325;28;20044;-64
2022/12/07 14:35:54;;;;;;;10.60;5.63;;;;;;;4.41;100.00;100231.25;5054202;28;20119;-65
2022/12/07 14:38:20;;;;;;;11.38;5.07;;;;;;;4.42;100.00;100227.63;5054178;28;20032;-65
2022/12/07 14:40:46;;;;;;;11.35;5.25;;;;;;;4.41;100.00;100233.03;5053885;28;20516;-64
2022/12/07 14:43:14;;;;;;;12.93;5.72;;;;;;;4.40;100.00;100226.09;5054244;28;20040;-64
2022/12/07 14:45:40;;;;;;;10.52;4.53;;;;;;;4.41;100.00;100228.59;5054389;28;20090;-62
2022/12/07 14:48:07;;;;;;;12.20;5.07;;;;;;;4.44;100.00;100231.00;5054192;28;20037;-63
2022/12/07 14:50:37;;;;;;;14.13;6.10;;;;;;;4.44;100.00;100236.25;5053582;28;20095;-64
2022/12/07 14:53:13;;;;;;;13.20;4.78;;;;;;;4.43;100.00;100239.84;5053620;28;20045;-65
2022/12/07 14:55:39;;;;;;;12.93;5.38;;;;;;;4.44;100.00;100236.25;5054104;28;20040;-65
2022/12/07 14:58:04;;;;;;;15.02;5.80;;;;;;;4.41;100.00;100227.78;5053994;28;20044;-64
2022/12/07 15:00:29;;;;;;;9.43;5.03;;;;;;;4.39;100.00;100227.91;5053472;28;20044;-64
2022/12/07 15:02:56;;;;;;;14.38;6.95;;;;;;;4.40;100.00;100229.56;5053949;28;20497;-64
2022/12/07 15:05:21;;;;;;;10.43;4.65;;;;;;;4.38;100.00;100231.53;5053868;28;20072;-64
2022/12/07 15:07:48;;;;;;;12.88;5.32;;;;;;;4.40;100.00;100224.31;5053751;28;20131;-64
2022/12/07 15:10:29;;;;;;;10.30;5.43;;;;;;;4.38;100.00;100230.69;5053202;28;20033;-64
2022/12/07 15:12:54;;;;;;;12.27;6.15;;;;;;;4.40;100.00;100234.03;5053654;28;20033;-64
2022/12/07 15:15:20;;;;;;;15.32;4.93;;;;;;;4.40;100.00;100226.94;5053530;28;20235;-64
2022/12/07 15:17:45;;;;;;;11.23;6.07;;;;;;;4.31;100.00;100231.22;5053580;28;20120;-64
2022/12/07 15:20:16;;;;;;;14.35;5.70;;;;;;;4.36;100.00;100233.44;5053290;28;20116;-64
2022/12/07 15:22:42;;;;;;;15.98;5.28;;;;;;;4.34;100.00;100230.09;5053446;28;20040;-64
2022/12/07 15:25:12;;;;;;;13.50;4.72;;;;;;;4.33;100.00;100226.63;5053398;28;20040;-65
2022/12/07 15:27:37;;;;;;;14.57;5.35;;;;;;;4.32;100.00;100232.06;5053336;28;20048;-63
2022/12/07 15:30:03;;;;;;;13.60;6.38;;;;;;;4.31;100.00;100227.75;5053227;28;20055;-61
2022/12/07 15:32:29;;;;;;;7.55;4.47;;;;;;;4.28;100.00;100231.47;5053011;28;20426;-64
2022/12/07 15:34:54;;;;;;;12.30;5.65;;;;;;;4.29;100.00;100227.88;5053318;28;20051;-64
2022/12/07 15:37:19;;;;;;;14.55;5.50;;;;;;;4.29;100.00;100227.03;5053130;28;20107;-64
2022/12/07 15:39:45;;;;;;;7.47;5.53;;;;;;;4.26;100.00;100229.94;5053070;28;20131;-64
2022/12/07 15:42:10;;;;;;;15.13;5.60;;;;;;;4.30;100.00;100220.78;5052674;28;20021;-64
2022/12/07 15:47:20;;;;;;;10.38;5.45;;;;;;;4.25;100.00;100221.22;5053013;28;20033;-65
2022/12/07 15:49:45;;;;;;;11.93;4.80;;;;;;;4.26;100.00;100222.88;5035044;28;20056;-62
2022/12/07 15:52:11;;;;;;;15.55;6.90;;;;;;;4.23;100.00;100222.28;5052586;28;20091;-63
2022/12/07 15:54:36;;;;;;;12.23;5.28;;;;;;;4.22;100.00;100215.34;5053472;28;20083;-64
2022/12/07 15:57:01;;;;;;;10.85;4.55;;;;;;;4.15;100.00;100214.22;5034967;28;20025;-65
2022/12/07 15:59:28;;;;;;;10.13;5.03;;;;;;;4.18;100.00;100203.41;5052706;28;20059;-61
2022/12/07 16:01:54;;;;;;;16.58;5.95;;;;;;;4.17;100.00;100199.91;5052281;28;20382;-63
2022/12/07 16:04:20;;;;;;;15.77;5.82;;;;;;;4.14;100.00;100191.47;5052781;28;20048;-64
2022/12/07 16:06:45;;;;;;;13.60;5.38;;;;;;;4.11;100.00;100194.34;5051740;28;20044;-63
2022/12/07 16:09:11;;;;;;;13.48;6.18;;;;;;;4.11;100.00;100189.06;5052604;28;20037;-65
2022/12/07 16:11:36;;;;;;;15.45;6.28;;;;;;;4.13;100.00;100195.06;5051937;28;20092;-65
2022/12/07 16:14:02;;;;;;;13.23;5.35;;;;;;;4.08;100.00;100187.53;5052476;28;20072;-65
2022/12/07 16:16:27;;;;;;;17.05;5.95;;;;;;;4.06;100.00;100184.22;5063410;28;20146;-65
2022/12/07 16:18:53;;;;;;;13.77;6.00;;;;;;;4.06;100.00;100179.78;5072524;28;20119;-66
2022/12/07 16:21:19;;;;;;;14.10;5.63;;;;;;;4.09;100.00;100179.50;5071874;28;20508;-64
2022/12/07 16:23:45;;;;;;;14.70;5.72;;;;;;;4.09;100.00;100179.50;5072859;28;20051;-64
2022/12/07 16:26:16;;;;;;;15.20;6.20;;;;;;;4.07;100.00;100181.44;5072694;28;20038;-64
2022/12/07 16:28:43;;;;;;;15.93;5.93;;;;;;;4.03;100.00;100185.31;5072414;28;20047;-63
2022/12/07 16:31:13;;;;;;;15.25;7.05;;;;;;;4.02;100.00;100177.53;5071572;28;20028;-64
2022/12/07 16:33:39;;;;;;;17.52;5.88;;;;;;;4.02;100.00;100175.72;5072068;28;20041;-64
2022/12/07 16:36:06;;;;;;;15.57;6.40;;;;;;;3.97;100.00;100183.19;5072052;28;20123;-64
2022/12/07 16:38:32;;;;;;;14.50;6.80;;;;;;;3.93;100.00;100186.25;5072048;28;20028;-64
2022/12/07 16:40:57;;;;;;;12.65;5.72;;;;;;;3.93;100.00;100179.16;5071721;28;20431;-64
2022/12/07 16:43:23;;;;;;;16.83;7.47;;;;;;;3.93;100.00;100181.81;5072006;28;20036;-64
2022/12/07 16:45:49;;;;;;;14.20;6.15;;;;;;;3.88;100.00;100181.38;5071964;28;20036;-64
2022/12/07 16:48:15;;;;;;;13.77;5.18;;;;;;;3.91;100.00;100182.88;5071947;28;20107;-64
2022/12/07 16:50:42;;;;;;;18.13;7.00;;;;;;;3.92;100.00;100192.50;5071289;28;20074;-64
2022/12/07 16:53:08;;;;;;;15.32;6.35;;;;;;;3.89;100.00;100169.03;5053798;28;20144;-64
2022/12/07 16:55:42;;;;;;;18.42;5.72;;;;;;;3.89;100.00;100171.66;5071553;28;20044;-64
2022/12/07 16:58:08;;;;;;;12.73;6.20;;;;;;;3.89;100.00;100172.47;5071687;28;20044;-64
2022/12/07 17:00:34;;;;;;;19.58;7.07;;;;;;;3.86;100.00;100167.50;5071381;28;20123;-64
2022/12/07 17:03:00;;;;;;;16.48;6.65;;;;;;;3.87;100.00;100169.16;5071639;28;20457;-64
2022/12/07 17:05:27;;;;;;;15.05;6.55;;;;;;;3.84;100.00;100165.94;5072030;28;20108;-64